Terminal Aerodrome Forecast
Issued by NWS Duluth, MN

Home | Current Version | Previous Version | Text Only | Print | Product List | Glossary On
Versions: 1 2 3 4 5 6 7 8 9 10 11 12 13 14 15 16 17 18 19 20 21 22 23 24 25 26 27 28 29 30 31 32
000
FTUS43 KDLH 011100
TAFINL
TAF
KINL 011136Z 0112/0212 15010KT P6SM VCSH BKN016 OVC040
     FM011700 16011G18KT P6SM OVC015
     FM020100 19007KT P6SM BKN015 OVC050
      TEMPO 0201/0205 SCT015 BKN050=

USA.gov is the U.S. government's official web portal to all federal, state and local government web resources and services.